OOCL Atlanta — VRAR6 — position and weather

sailwx.info

Track history (hours):
 
Tides and Currents Weather Stations Pressure Air Temp Water Temp Dewpoint Dewpoint Depression Visibility Wind Speed Wind Dir Waves Ship Positions

OOCL Atlanta

Last reported at 2016-Sep-28 12:12 UTC. Time now 2016-Sep-30 06:43 UTC.
Position N 33°50' W 076°07'.

Length 323 m; beam 42.8 m; draft 14.5 m.

Type: Cargo ship. MMSI: 477920300.

Date/timePositionNaut miles runAvg speedWind from/ knotsBaromVisibWave heightAir tempDewpointWater temp
2016-Sep-28 12:12N 33°50' W 076°07'4011.0
2016-Sep-28 08:33N 33°34' W 076°52'  
2016-Sep-26 02:33N 31°24' W 080°16'8 5.7
2016-Sep-26 01:10N 31°17' W 080°20'  
2016-Sep-23 16:30N 31°50' W 080°30'7 7.1
2016-Sep-23 15:33N 31°55' W 080°35'17 8.6
2016-Sep-23 13:33N 32°02' W 080°54'14 3.4
2016-Sep-23 09:31N 32°08' W 081°08'0 0.0
2016-Sep-23 06:31N 32°08' W 081°08'0 0.0
2016-Sep-23 04:31N 32°08' W 081°08'0 0.0
2016-Sep-23 03:31N 32°08' W 081°08'0 0.0
2016-Sep-23 02:31N 32°08' W 081°08'0 0.0
2016-Sep-23 01:31N 32°08' W 081°08'0 0.0
2016-Sep-23 00:31N 32°08' W 081°08'0 0.0
2016-Sep-22 23:31N 32°08' W 081°08'0 0.0
2016-Sep-22 20:31N 32°08' W 081°08'0 0.0
2016-Sep-22 12:28N 32°08' W 081°08'372 8.1
2016-Sep-20 14:32N 36°54' W 076°20'0 0.0
2016-Sep-20 13:32N 36°54' W 076°20'0 0.0
2016-Sep-20 10:32N 36°54' W 076°20'0 0.0
2016-Sep-20 08:32N 36°54' W 076°20'0 0.0
2016-Sep-20 07:32N 36°54' W 076°20'0 0.0
2016-Sep-20 06:08N 36°54' W 076°20'0 0.0
2016-Sep-20 02:29N 36°54' W 076°20'12 1.8
2016-Sep-19 19:33N 36°58' W 076°05'1312.9
2016-Sep-19 18:33N 36°52' W 075°51'  
Track history (hours):
 
Tides and Currents Weather Stations Pressure Air Temp Water Temp Dewpoint Dewpoint Depression Visibility Wind Speed Wind Dir Waves Ship Positions

OOCL Atlanta

Last reported at 2016-Sep-28 12:12 UTC. Time now 2016-Sep-30 06:43 UTC.
Position N 33°50' W 076°07'.

Length 323 m; beam 42.8 m; draft 14.5 m.

Type: Cargo ship. MMSI: 477920300.

Date/timePositionNaut miles runAvg speedWind from/ knotsBaromVisibWave heightAir tempDewpointWater temp
2016-Sep-28 12:12N 33°50' W 076°07'4011.0
2016-Sep-28 08:33N 33°34' W 076°52'  
2016-Sep-26 02:33N 31°24' W 080°16'8 5.7
2016-Sep-26 01:10N 31°17' W 080°20'  
2016-Sep-23 16:30N 31°50' W 080°30'7 7.1
2016-Sep-23 15:33N 31°55' W 080°35'17 8.6
2016-Sep-23 13:33N 32°02' W 080°54'14 3.4
2016-Sep-23 09:31N 32°08' W 081°08'0 0.0
2016-Sep-23 06:31N 32°08' W 081°08'0 0.0
2016-Sep-23 04:31N 32°08' W 081°08'0 0.0
2016-Sep-23 03:31N 32°08' W 081°08'0 0.0
2016-Sep-23 02:31N 32°08' W 081°08'0 0.0
2016-Sep-23 01:31N 32°08' W 081°08'0 0.0
2016-Sep-23 00:31N 32°08' W 081°08'0 0.0
2016-Sep-22 23:31N 32°08' W 081°08'0 0.0
2016-Sep-22 20:31N 32°08' W 081°08'0 0.0
2016-Sep-22 12:28N 32°08' W 081°08'372 8.1
2016-Sep-20 14:32N 36°54' W 076°20'0 0.0
2016-Sep-20 13:32N 36°54' W 076°20'0 0.0
2016-Sep-20 10:32N 36°54' W 076°20'0 0.0
2016-Sep-20 08:32N 36°54' W 076°20'0 0.0
2016-Sep-20 07:32N 36°54' W 076°20'0 0.0
2016-Sep-20 06:08N 36°54' W 076°20'0 0.0
2016-Sep-20 02:29N 36°54' W 076°20'12 1.8
2016-Sep-19 19:33N 36°58' W 076°05'1312.9
2016-Sep-19 18:33N 36°52' W 075°51'  

Dump ship's entire track history